sensor_id;sensor_type;location;lat;lon;timestamp;P1;durP1;ratioP1;P2;durP2;ratioP2
70532;SDS011;58088;51.186;17.130;2023-05-23T00:00:59;12.10;;;5.60;;
70532;SDS011;58088;51.186;17.130;2023-05-23T00:03:26;10.50;;;5.50;;
70532;SDS011;58088;51.186;17.130;2023-05-23T00:05:53;12.40;;;5.60;;
70532;SDS011;58088;51.186;17.130;2023-05-23T00:08:21;10.30;;;5.70;;
70532;SDS011;58088;51.186;17.130;2023-05-23T00:10:47;11.70;;;5.80;;
70532;SDS011;58088;51.186;17.130;2023-05-23T00:13:14;11.90;;;5.90;;
70532;SDS011;58088;51.186;17.130;2023-05-23T00:15:40;11.30;;;6.00;;
70532;SDS011;58088;51.186;17.130;2023-05-23T00:18:08;10.60;;;5.80;;
70532;SDS011;58088;51.186;17.130;2023-05-23T00:20:37;11.60;;;5.50;;
70532;SDS011;58088;51.186;17.130;2023-05-23T00:23:08;10.60;;;5.30;;
70532;SDS011;58088;51.186;17.130;2023-05-23T00:25:36;12.90;;;5.70;;
70532;SDS011;58088;51.186;17.130;2023-05-23T00:28:03;11.60;;;5.50;;
70532;SDS011;58088;51.186;17.130;2023-05-23T00:30:30;11.40;;;6.00;;
70532;SDS011;58088;51.186;17.130;2023-05-23T00:32:58;10.60;;;5.20;;
70532;SDS011;58088;51.186;17.130;2023-05-23T00:35:25;10.30;;;5.30;;
70532;SDS011;58088;51.186;17.130;2023-05-23T00:37:53;11.10;;;5.70;;
70532;SDS011;58088;51.186;17.130;2023-05-23T00:40:21;11.50;;;5.40;;
70532;SDS011;58088;51.186;17.130;2023-05-23T00:42:48;10.50;;;6.10;;
70532;SDS011;58088;51.186;17.130;2023-05-23T00:45:15;11.40;;;6.20;;
70532;SDS011;58088;51.186;17.130;2023-05-23T00:47:43;10.60;;;6.50;;
70532;SDS011;58088;51.186;17.130;2023-05-23T00:50:12;9.90;;;5.70;;
70532;SDS011;58088;51.186;17.130;2023-05-23T00:52:42;9.70;;;5.90;;
70532;SDS011;58088;51.186;17.130;2023-05-23T00:55:11;14.50;;;6.50;;
70532;SDS011;58088;51.186;17.130;2023-05-23T00:57:38;13.50;;;6.40;;
70532;SDS011;58088;51.186;17.130;2023-05-23T01:00:07;10.50;;;5.90;;
70532;SDS011;58088;51.186;17.130;2023-05-23T01:02:44;12.40;;;6.40;;
70532;SDS011;58088;51.186;17.130;2023-05-23T01:05:14;12.20;;;7.30;;
70532;SDS011;58088;51.186;17.130;2023-05-23T01:07:43;11.70;;;6.60;;
70532;SDS011;58088;51.186;17.130;2023-05-23T01:10:11;10.80;;;6.60;;
70532;SDS011;58088;51.186;17.130;2023-05-23T01:16:01;11.10;;;6.10;;
70532;SDS011;58088;51.186;17.130;2023-05-23T01:18:56;11.90;;;6.10;;
70532;SDS011;58088;51.186;17.130;2023-05-23T01:21:27;11.00;;;6.60;;
70532;SDS011;58088;51.186;17.130;2023-05-23T01:24:28;11.20;;;6.20;;
70532;SDS011;58088;51.186;17.130;2023-05-23T01:30:12;10.40;;;6.00;;
70532;SDS011;58088;51.186;17.130;2023-05-23T01:32:39;11.30;;;6.10;;
70532;SDS011;58088;51.186;17.130;2023-05-23T01:35:06;10.70;;;6.10;;
70532;SDS011;58088;51.186;17.130;2023-05-23T01:37:33;10.20;;;5.80;;
70532;SDS011;58088;51.186;17.130;2023-05-23T01:39:59;11.70;;;6.40;;
70532;SDS011;58088;51.186;17.130;2023-05-23T01:42:25;9.50;;;6.00;;
70532;SDS011;58088;51.186;17.130;2023-05-23T01:44:53;12.10;;;6.30;;
70532;SDS011;58088;51.186;17.130;2023-05-23T01:47:20;12.70;;;6.40;;
70532;SDS011;58088;51.186;17.130;2023-05-23T01:49:47;9.40;;;6.00;;
70532;SDS011;58088;51.186;17.130;2023-05-23T01:52:14;12.40;;;5.90;;
70532;SDS011;58088;51.186;17.130;2023-05-23T01:54:42;12.60;;;6.40;;
70532;SDS011;58088;51.186;17.130;2023-05-23T01:57:09;12.60;;;6.30;;
70532;SDS011;58088;51.186;17.130;2023-05-23T01:59:36;12.40;;;6.20;;
70532;SDS011;58088;51.186;17.130;2023-05-23T02:02:09;10.90;;;6.10;;
70532;SDS011;58088;51.186;17.130;2023-05-23T02:04:54;12.10;;;6.40;;
70532;SDS011;58088;51.186;17.130;2023-05-23T02:07:23;11.20;;;6.00;;
70532;SDS011;58088;51.186;17.130;2023-05-23T02:09:49;10.60;;;6.30;;
70532;SDS011;58088;51.186;17.130;2023-05-23T02:12:15;13.60;;;7.00;;
70532;SDS011;58088;51.186;17.130;2023-05-23T02:14:41;10.50;;;6.30;;
70532;SDS011;58088;51.186;17.130;2023-05-23T02:17:08;10.70;;;6.30;;
70532;SDS011;58088;51.186;17.130;2023-05-23T02:19:37;12.20;;;6.50;;
70532;SDS011;58088;51.186;17.130;2023-05-23T02:22:03;10.70;;;6.10;;
70532;SDS011;58088;51.186;17.130;2023-05-23T02:24:30;12.40;;;6.40;;
70532;SDS011;58088;51.186;17.130;2023-05-23T02:26:56;13.40;;;6.50;;
70532;SDS011;58088;51.186;17.130;2023-05-23T02:29:22;13.70;;;6.50;;
70532;SDS011;58088;51.186;17.130;2023-05-23T02:31:48;11.20;;;6.80;;
70532;SDS011;58088;51.186;17.130;2023-05-23T02:34:15;10.30;;;6.10;;
70532;SDS011;58088;51.186;17.130;2023-05-23T02:36:43;10.90;;;7.00;;
70532;SDS011;58088;51.186;17.130;2023-05-23T02:39:09;11.90;;;6.40;;
70532;SDS011;58088;51.186;17.130;2023-05-23T02:41:35;13.10;;;6.90;;
70532;SDS011;58088;51.186;17.130;2023-05-23T02:44:02;10.50;;;6.70;;
70532;SDS011;58088;51.186;17.130;2023-05-23T02:46:28;10.00;;;6.10;;
70532;SDS011;58088;51.186;17.130;2023-05-23T02:48:55;13.00;;;7.10;;
70532;SDS011;58088;51.186;17.130;2023-05-23T02:51:21;11.30;;;6.30;;
70532;SDS011;58088;51.186;17.130;2023-05-23T02:53:47;10.20;;;6.50;;
70532;SDS011;58088;51.186;17.130;2023-05-23T02:56:13;13.50;;;7.20;;
70532;SDS011;58088;51.186;17.130;2023-05-23T02:58:40;13.70;;;7.50;;
70532;SDS011;58088;51.186;17.130;2023-05-23T03:01:07;15.30;;;6.90;;
70532;SDS011;58088;51.186;17.130;2023-05-23T03:03:33;10.40;;;5.80;;
70532;SDS011;58088;51.186;17.130;2023-05-23T03:06:01;11.50;;;6.20;;
70532;SDS011;58088;51.186;17.130;2023-05-23T03:08:30;11.50;;;6.90;;
70532;SDS011;58088;51.186;17.130;2023-05-23T03:10:57;13.80;;;7.40;;
70532;SDS011;58088;51.186;17.130;2023-05-23T03:13:23;12.80;;;7.10;;
70532;SDS011;58088;51.186;17.130;2023-05-23T03:15:50;12.40;;;6.50;;
70532;SDS011;58088;51.186;17.130;2023-05-23T03:18:16;11.90;;;7.10;;
70532;SDS011;58088;51.186;17.130;2023-05-23T03:20:43;14.60;;;7.00;;
70532;SDS011;58088;51.186;17.130;2023-05-23T03:23:09;11.70;;;6.70;;
70532;SDS011;58088;51.186;17.130;2023-05-23T03:25:35;13.20;;;6.90;;
70532;SDS011;58088;51.186;17.130;2023-05-23T03:28:01;11.40;;;6.90;;
70532;SDS011;58088;51.186;17.130;2023-05-23T03:30:28;14.10;;;7.30;;
70532;SDS011;58088;51.186;17.130;2023-05-23T03:32:56;12.20;;;7.40;;
70532;SDS011;58088;51.186;17.130;2023-05-23T03:35:23;15.80;;;7.70;;
70532;SDS011;58088;51.186;17.130;2023-05-23T03:37:49;14.60;;;7.70;;
70532;SDS011;58088;51.186;17.130;2023-05-23T03:40:15;16.00;;;7.40;;
70532;SDS011;58088;51.186;17.130;2023-05-23T03:42:41;13.30;;;7.40;;
70532;SDS011;58088;51.186;17.130;2023-05-23T03:45:08;13.70;;;7.60;;
70532;SDS011;58088;51.186;17.130;2023-05-23T03:47:34;12.20;;;7.50;;
70532;SDS011;58088;51.186;17.130;2023-05-23T03:50:01;14.50;;;8.10;;
70532;SDS011;58088;51.186;17.130;2023-05-23T03:52:27;13.90;;;7.50;;
70532;SDS011;58088;51.186;17.130;2023-05-23T03:54:53;13.30;;;7.20;;
70532;SDS011;58088;51.186;17.130;2023-05-23T03:57:20;15.40;;;8.10;;
70532;SDS011;58088;51.186;17.130;2023-05-23T03:59:46;13.40;;;7.30;;
70532;SDS011;58088;51.186;17.130;2023-05-23T04:02:12;11.80;;;6.80;;
70532;SDS011;58088;51.186;17.130;2023-05-23T04:04:39;11.10;;;6.40;;
70532;SDS011;58088;51.186;17.130;2023-05-23T04:07:06;10.90;;;6.90;;
70532;SDS011;58088;51.186;17.130;2023-05-23T04:09:34;11.70;;;7.20;;
70532;SDS011;58088;51.186;17.130;2023-05-23T04:12:02;12.60;;;7.30;;
70532;SDS011;58088;51.186;17.130;2023-05-23T04:14:28;12.10;;;7.10;;
70532;SDS011;58088;51.186;17.130;2023-05-23T04:16:56;11.90;;;6.90;;
70532;SDS011;58088;51.186;17.130;2023-05-23T04:19:22;11.80;;;7.70;;
70532;SDS011;58088;51.186;17.130;2023-05-23T04:21:50;13.60;;;7.30;;
70532;SDS011;58088;51.186;17.130;2023-05-23T04:24:17;13.30;;;6.90;;
70532;SDS011;58088;51.186;17.130;2023-05-23T04:26:43;14.00;;;7.30;;
70532;SDS011;58088;51.186;17.130;2023-05-23T04:29:09;11.10;;;6.10;;
70532;SDS011;58088;51.186;17.130;2023-05-23T04:31:37;10.50;;;6.70;;
70532;SDS011;58088;51.186;17.130;2023-05-23T04:34:03;11.10;;;6.90;;
70532;SDS011;58088;51.186;17.130;2023-05-23T04:36:31;10.60;;;7.00;;
70532;SDS011;58088;51.186;17.130;2023-05-23T04:38:58;15.90;;;8.10;;
70532;SDS011;58088;51.186;17.130;2023-05-23T04:41:25;13.40;;;7.20;;
70532;SDS011;58088;51.186;17.130;2023-05-23T04:43:51;15.60;;;7.20;;
70532;SDS011;58088;51.186;17.130;2023-05-23T04:46:25;11.50;;;6.80;;
70532;SDS011;58088;51.186;17.130;2023-05-23T04:49:04;9.90;;;6.40;;
70532;SDS011;58088;51.186;17.130;2023-05-23T04:51:31;15.00;;;6.50;;
70532;SDS011;58088;51.186;17.130;2023-05-23T04:54:11;11.40;;;6.50;;
70532;SDS011;58088;51.186;17.130;2023-05-23T04:56:37;10.30;;;6.50;;
70532;SDS011;58088;51.186;17.130;2023-05-23T04:59:04;10.70;;;6.40;;
70532;SDS011;58088;51.186;17.130;2023-05-23T05:01:30;11.30;;;6.40;;
70532;SDS011;58088;51.186;17.130;2023-05-23T05:03:56;7.90;;;4.80;;
70532;SDS011;58088;51.186;17.130;2023-05-23T05:06:23;10.80;;;6.20;;
70532;SDS011;58088;51.186;17.130;2023-05-23T05:08:50;11.50;;;6.20;;
70532;SDS011;58088;51.186;17.130;2023-05-23T05:11:16;12.60;;;6.40;;
70532;SDS011;58088;51.186;17.130;2023-05-23T05:13:42;11.60;;;5.70;;
70532;SDS011;58088;51.186;17.130;2023-05-23T05:16:08;10.80;;;6.90;;
70532;SDS011;58088;51.186;17.130;2023-05-23T05:18:36;10.50;;;6.50;;
70532;SDS011;58088;51.186;17.130;2023-05-23T05:21:02;9.50;;;5.90;;
70532;SDS011;58088;51.186;17.130;2023-05-23T05:23:30;12.30;;;6.90;;
70532;SDS011;58088;51.186;17.130;2023-05-23T05:25:58;10.00;;;6.20;;
70532;SDS011;58088;51.186;17.130;2023-05-23T05:28:26;11.40;;;6.20;;
70532;SDS011;58088;51.186;17.130;2023-05-23T05:30:52;10.80;;;6.00;;
70532;SDS011;58088;51.186;17.130;2023-05-23T05:33:20;11.70;;;6.20;;
70532;SDS011;58088;51.186;17.130;2023-05-23T05:35:55;12.50;;;5.90;;
70532;SDS011;58088;51.186;17.130;2023-05-23T05:38:21;12.70;;;5.90;;
70532;SDS011;58088;51.186;17.130;2023-05-23T05:40:48;9.40;;;6.40;;
70532;SDS011;58088;51.186;17.130;2023-05-23T05:43:15;9.70;;;6.20;;
70532;SDS011;58088;51.186;17.130;2023-05-23T05:45:41;10.50;;;6.50;;
70532;SDS011;58088;51.186;17.130;2023-05-23T05:48:07;10.90;;;5.90;;
70532;SDS011;58088;51.186;17.130;2023-05-23T05:50:34;8.40;;;5.40;;
70532;SDS011;58088;51.186;17.130;2023-05-23T05:53:01;9.30;;;6.30;;
70532;SDS011;58088;51.186;17.130;2023-05-23T05:55:28;10.10;;;6.50;;
70532;SDS011;58088;51.186;17.130;2023-05-23T05:57:57;10.70;;;6.70;;
70532;SDS011;58088;51.186;17.130;2023-05-23T06:00:24;11.60;;;6.00;;
70532;SDS011;58088;51.186;17.130;2023-05-23T06:02:52;13.40;;;6.40;;
70532;SDS011;58088;51.186;17.130;2023-05-23T06:05:42;11.90;;;6.30;;
70532;SDS011;58088;51.186;17.130;2023-05-23T06:08:09;9.70;;;6.00;;
70532;SDS011;58088;51.186;17.130;2023-05-23T06:10:37;9.40;;;5.90;;
70532;SDS011;58088;51.186;17.130;2023-05-23T06:13:07;10.20;;;6.20;;
70532;SDS011;58088;51.186;17.130;2023-05-23T06:15:34;10.40;;;6.10;;
70532;SDS011;58088;51.186;17.130;2023-05-23T06:18:01;10.40;;;5.90;;
70532;SDS011;58088;51.186;17.130;2023-05-23T06:20:29;11.40;;;5.80;;
70532;SDS011;58088;51.186;17.130;2023-05-23T06:22:57;10.60;;;6.40;;
70532;SDS011;58088;51.186;17.130;2023-05-23T06:25:26;9.40;;;5.90;;
70532;SDS011;58088;51.186;17.130;2023-05-23T06:27:52;9.70;;;6.50;;
70532;SDS011;58088;51.186;17.130;2023-05-23T06:30:18;9.70;;;6.00;;
70532;SDS011;58088;51.186;17.130;2023-05-23T06:32:46;9.70;;;6.00;;
70532;SDS011;58088;51.186;17.130;2023-05-23T06:35:14;8.80;;;5.90;;
70532;SDS011;58088;51.186;17.130;2023-05-23T06:37:41;9.90;;;6.20;;
70532;SDS011;58088;51.186;17.130;2023-05-23T06:40:13;11.00;;;6.30;;
70532;SDS011;58088;51.186;17.130;2023-05-23T06:42:40;14.70;;;6.60;;
70532;SDS011;58088;51.186;17.130;2023-05-23T06:45:18;12.40;;;6.50;;
70532;SDS011;58088;51.186;17.130;2023-05-23T06:47:44;10.20;;;6.10;;
70532;SDS011;58088;51.186;17.130;2023-05-23T06:50:14;9.30;;;6.10;;
70532;SDS011;58088;51.186;17.130;2023-05-23T06:52:41;13.90;;;6.30;;
70532;SDS011;58088;51.186;17.130;2023-05-23T06:55:12;11.10;;;6.10;;
70532;SDS011;58088;51.186;17.130;2023-05-23T06:57:45;13.40;;;5.80;;
70532;SDS011;58088;51.186;17.130;2023-05-23T07:00:13;8.80;;;5.80;;
70532;SDS011;58088;51.186;17.130;2023-05-23T07:02:53;12.60;;;6.40;;
70532;SDS011;58088;51.186;17.130;2023-05-23T07:05:21;12.10;;;6.80;;
70532;SDS011;58088;51.186;17.130;2023-05-23T07:07:50;10.10;;;6.30;;
70532;SDS011;58088;51.186;17.130;2023-05-23T07:10:17;10.50;;;6.50;;
70532;SDS011;58088;51.186;17.130;2023-05-23T07:12:46;11.90;;;6.30;;
70532;SDS011;58088;51.186;17.130;2023-05-23T07:15:14;9.80;;;6.20;;
70532;SDS011;58088;51.186;17.130;2023-05-23T07:17:51;8.90;;;5.90;;
70532;SDS011;58088;51.186;17.130;2023-05-23T07:20:18;12.40;;;5.90;;
70532;SDS011;58088;51.186;17.130;2023-05-23T07:22:45;11.80;;;5.80;;
70532;SDS011;58088;51.186;17.130;2023-05-23T07:25:12;12.60;;;6.30;;
70532;SDS011;58088;51.186;17.130;2023-05-23T07:27:39;11.40;;;6.70;;
70532;SDS011;58088;51.186;17.130;2023-05-23T07:30:07;11.30;;;6.60;;
70532;SDS011;58088;51.186;17.130;2023-05-23T07:32:36;8.80;;;6.40;;
70532;SDS011;58088;51.186;17.130;2023-05-23T07:35:03;10.50;;;6.00;;
70532;SDS011;58088;51.186;17.130;2023-05-23T07:37:30;10.00;;;6.30;;
70532;SDS011;58088;51.186;17.130;2023-05-23T07:39:57;11.70;;;6.00;;
70532;SDS011;58088;51.186;17.130;2023-05-23T07:42:24;8.50;;;5.70;;
70532;SDS011;58088;51.186;17.130;2023-05-23T07:44:50;9.00;;;5.30;;
70532;SDS011;58088;51.186;17.130;2023-05-23T07:47:16;10.90;;;5.50;;
70532;SDS011;58088;51.186;17.130;2023-05-23T07:49:43;9.20;;;5.50;;
70532;SDS011;58088;51.186;17.130;2023-05-23T07:52:09;9.80;;;5.60;;
70532;SDS011;58088;51.186;17.130;2023-05-23T07:54:36;9.10;;;5.50;;
70532;SDS011;58088;51.186;17.130;2023-05-23T07:57:03;11.00;;;5.60;;
70532;SDS011;58088;51.186;17.130;2023-05-23T07:59:29;11.50;;;5.90;;
70532;SDS011;58088;51.186;17.130;2023-05-23T08:01:56;9.30;;;5.40;;
70532;SDS011;58088;51.186;17.130;2023-05-23T08:04:24;10.60;;;5.90;;
70532;SDS011;58088;51.186;17.130;2023-05-23T08:06:51;12.40;;;5.60;;
70532;SDS011;58088;51.186;17.130;2023-05-23T08:09:19;10.50;;;5.80;;
70532;SDS011;58088;51.186;17.130;2023-05-23T08:11:49;8.10;;;4.90;;
70532;SDS011;58088;51.186;17.130;2023-05-23T08:14:16;8.90;;;5.00;;
70532;SDS011;58088;51.186;17.130;2023-05-23T08:16:56;8.50;;;5.30;;
70532;SDS011;58088;51.186;17.130;2023-05-23T08:19:24;7.90;;;4.60;;
70532;SDS011;58088;51.186;17.130;2023-05-23T08:21:51;9.20;;;5.30;;
70532;SDS011;58088;51.186;17.130;2023-05-23T08:24:21;8.60;;;4.70;;
70532;SDS011;58088;51.186;17.130;2023-05-23T08:26:47;11.60;;;4.60;;
70532;SDS011;58088;51.186;17.130;2023-05-23T08:29:15;8.60;;;4.70;;
70532;SDS011;58088;51.186;17.130;2023-05-23T08:31:41;9.60;;;4.80;;
70532;SDS011;58088;51.186;17.130;2023-05-23T08:34:08;8.70;;;5.00;;
70532;SDS011;58088;51.186;17.130;2023-05-23T08:36:36;8.70;;;4.90;;
70532;SDS011;58088;51.186;17.130;2023-05-23T08:39:06;11.10;;;5.30;;
70532;SDS011;58088;51.186;17.130;2023-05-23T08:41:38;7.70;;;4.70;;
70532;SDS011;58088;51.186;17.130;2023-05-23T08:44:08;10.90;;;4.90;;
70532;SDS011;58088;51.186;17.130;2023-05-23T08:46:44;8.80;;;5.10;;
70532;SDS011;58088;51.186;17.130;2023-05-23T08:49:16;9.70;;;4.90;;
70532;SDS011;58088;51.186;17.130;2023-05-23T08:51:43;10.30;;;4.90;;
70532;SDS011;58088;51.186;17.130;2023-05-23T08:54:15;9.00;;;4.90;;
70532;SDS011;58088;51.186;17.130;2023-05-23T08:56:44;7.60;;;4.80;;
70532;SDS011;58088;51.186;17.130;2023-05-23T08:59:11;10.70;;;5.10;;
70532;SDS011;58088;51.186;17.130;2023-05-23T09:01:40;8.70;;;4.80;;
70532;SDS011;58088;51.186;17.130;2023-05-23T09:04:09;7.80;;;4.60;;
70532;SDS011;58088;51.186;17.130;2023-05-23T09:06:45;8.20;;;4.80;;
70532;SDS011;58088;51.186;17.130;2023-05-23T09:09:12;8.70;;;5.00;;
70532;SDS011;58088;51.186;17.130;2023-05-23T09:11:40;8.20;;;4.80;;
70532;SDS011;58088;51.186;17.130;2023-05-23T09:14:11;9.60;;;5.50;;
70532;SDS011;58088;51.186;17.130;2023-05-23T09:16:39;8.60;;;5.30;;
70532;SDS011;58088;51.186;17.130;2023-05-23T09:19:11;9.40;;;5.40;;
70532;SDS011;58088;51.186;17.130;2023-05-23T09:21:45;8.40;;;5.30;;
70532;SDS011;58088;51.186;17.130;2023-05-23T09:24:18;9.90;;;5.70;;
70532;SDS011;58088;51.186;17.130;2023-05-23T09:26:46;9.60;;;5.40;;
70532;SDS011;58088;51.186;17.130;2023-05-23T09:29:15;12.80;;;5.90;;
70532;SDS011;58088;51.186;17.130;2023-05-23T09:31:44;9.80;;;6.00;;
70532;SDS011;58088;51.186;17.130;2023-05-23T09:34:11;13.00;;;5.90;;
70532;SDS011;58088;51.186;17.130;2023-05-23T09:36:39;18.50;;;6.10;;
70532;SDS011;58088;51.186;17.130;2023-05-23T09:39:10;10.20;;;6.10;;
70532;SDS011;58088;51.186;17.130;2023-05-23T09:41:37;14.00;;;5.90;;
70532;SDS011;58088;51.186;17.130;2023-05-23T09:44:06;12.00;;;7.20;;
70532;SDS011;58088;51.186;17.130;2023-05-23T09:46:36;13.80;;;6.80;;
70532;SDS011;58088;51.186;17.130;2023-05-23T09:49:16;11.40;;;6.10;;
70532;SDS011;58088;51.186;17.130;2023-05-23T09:51:56;12.10;;;6.60;;
70532;SDS011;58088;51.186;17.130;2023-05-23T09:54:23;11.70;;;6.10;;
70532;SDS011;58088;51.186;17.130;2023-05-23T09:56:52;10.50;;;6.30;;
70532;SDS011;58088;51.186;17.130;2023-05-23T09:59:21;12.00;;;6.90;;
70532;SDS011;58088;51.186;17.130;2023-05-23T10:01:51;10.00;;;6.80;;
70532;SDS011;58088;51.186;17.130;2023-05-23T10:04:21;13.40;;;6.70;;
70532;SDS011;58088;51.186;17.130;2023-05-23T10:06:56;14.20;;;7.10;;
70532;SDS011;58088;51.186;17.130;2023-05-23T10:09:27;11.90;;;7.10;;
70532;SDS011;58088;51.186;17.130;2023-05-23T10:15:04;12.10;;;7.30;;
70532;SDS011;58088;51.186;17.130;2023-05-23T10:20:48;10.80;;;6.90;;
70532;SDS011;58088;51.186;17.130;2023-05-23T10:23:20;11.50;;;6.70;;
70532;SDS011;58088;51.186;17.130;2023-05-23T10:25:47;13.70;;;7.30;;
70532;SDS011;58088;51.186;17.130;2023-05-23T10:28:14;14.20;;;7.50;;
70532;SDS011;58088;51.186;17.130;2023-05-23T10:30:40;12.70;;;7.20;;
70532;SDS011;58088;51.186;17.130;2023-05-23T10:33:08;12.80;;;7.40;;
70532;SDS011;58088;51.186;17.130;2023-05-23T10:39:19;12.90;;;6.00;;
70532;SDS011;58088;51.186;17.130;2023-05-23T10:42:10;9.50;;;6.00;;
70532;SDS011;58088;51.186;17.130;2023-05-23T10:44:42;10.10;;;5.90;;
70532;SDS011;58088;51.186;17.130;2023-05-23T10:47:08;8.60;;;5.70;;
70532;SDS011;58088;51.186;17.130;2023-05-23T10:49:45;13.90;;;6.30;;
70532;SDS011;58088;51.186;17.130;2023-05-23T10:52:16;10.90;;;6.20;;
70532;SDS011;58088;51.186;17.130;2023-05-23T10:54:49;11.60;;;6.10;;
70532;SDS011;58088;51.186;17.130;2023-05-23T10:57:21;12.00;;;6.50;;
70532;SDS011;58088;51.186;17.130;2023-05-23T10:59:52;13.40;;;7.30;;
70532;SDS011;58088;51.186;17.130;2023-05-23T11:02:24;14.00;;;7.20;;
70532;SDS011;58088;51.186;17.130;2023-05-23T11:05:21;13.90;;;7.40;;
70532;SDS011;58088;51.186;17.130;2023-05-23T11:08:11;12.70;;;7.40;;
70532;SDS011;58088;51.186;17.130;2023-05-23T11:11:03;13.40;;;7.80;;
70532;SDS011;58088;51.186;17.130;2023-05-23T11:16:33;15.20;;;8.30;;
70532;SDS011;58088;51.186;17.130;2023-05-23T11:21:48;12.50;;;8.00;;
70532;SDS011;58088;51.186;17.130;2023-05-23T11:24:17;17.30;;;8.70;;
70532;SDS011;58088;51.186;17.130;2023-05-23T11:26:54;14.00;;;8.70;;
70532;SDS011;58088;51.186;17.130;2023-05-23T11:29:29;13.60;;;8.60;;
70532;SDS011;58088;51.186;17.130;2023-05-23T11:31:56;13.40;;;9.10;;
70532;SDS011;58088;51.186;17.130;2023-05-23T11:34:26;16.90;;;9.40;;
70532;SDS011;58088;51.186;17.130;2023-05-23T11:36:53;15.90;;;8.90;;
70532;SDS011;58088;51.186;17.130;2023-05-23T11:39:21;16.60;;;10.70;;
70532;SDS011;58088;51.186;17.130;2023-05-23T11:42:01;14.30;;;9.40;;
70532;SDS011;58088;51.186;17.130;2023-05-23T11:44:28;14.30;;;8.80;;
70532;SDS011;58088;51.186;17.130;2023-05-23T11:47:02;14.70;;;10.00;;
70532;SDS011;58088;51.186;17.130;2023-05-23T11:49:33;13.90;;;9.40;;
70532;SDS011;58088;51.186;17.130;2023-05-23T11:52:03;14.00;;;9.10;;
70532;SDS011;58088;51.186;17.130;2023-05-23T11:54:31;12.30;;;8.40;;
70532;SDS011;58088;51.186;17.130;2023-05-23T11:56:58;14.80;;;9.20;;
70532;SDS011;58088;51.186;17.130;2023-05-23T11:59:25;12.60;;;8.40;;
70532;SDS011;58088;51.186;17.130;2023-05-23T12:01:54;12.70;;;8.20;;
70532;SDS011;58088;51.186;17.130;2023-05-23T12:04:21;12.50;;;7.90;;
70532;SDS011;58088;51.186;17.130;2023-05-23T12:06:48;15.00;;;9.40;;
70532;SDS011;58088;51.186;17.130;2023-05-23T12:09:15;13.60;;;8.80;;
70532;SDS011;58088;51.186;17.130;2023-05-23T12:11:42;20.20;;;10.60;;
70532;SDS011;58088;51.186;17.130;2023-05-23T12:14:14;14.50;;;9.30;;
70532;SDS011;58088;51.186;17.130;2023-05-23T12:16:43;13.70;;;9.10;;
70532;SDS011;58088;51.186;17.130;2023-05-23T12:19:12;13.30;;;9.10;;
70532;SDS011;58088;51.186;17.130;2023-05-23T12:21:41;12.70;;;8.80;;
70532;SDS011;58088;51.186;17.130;2023-05-23T12:24:15;13.40;;;8.70;;
70532;SDS011;58088;51.186;17.130;2023-05-23T12:26:50;16.00;;;9.30;;
70532;SDS011;58088;51.186;17.130;2023-05-23T12:29:28;12.80;;;8.70;;
70532;SDS011;58088;51.186;17.130;2023-05-23T12:31:57;14.20;;;8.60;;
70532;SDS011;58088;51.186;17.130;2023-05-23T12:34:24;15.50;;;9.10;;
70532;SDS011;58088;51.186;17.130;2023-05-23T12:36:55;13.10;;;8.90;;
70532;SDS011;58088;51.186;17.130;2023-05-23T12:39:29;13.00;;;8.80;;
70532;SDS011;58088;51.186;17.130;2023-05-23T12:42:06;12.50;;;9.20;;
70532;SDS011;58088;51.186;17.130;2023-05-23T12:44:34;16.00;;;10.30;;
70532;SDS011;58088;51.186;17.130;2023-05-23T12:47:02;13.50;;;7.80;;
70532;SDS011;58088;51.186;17.130;2023-05-23T12:49:28;12.20;;;7.80;;
70532;SDS011;58088;51.186;17.130;2023-05-23T12:51:55;13.50;;;8.70;;
70532;SDS011;58088;51.186;17.130;2023-05-23T12:54:21;12.80;;;8.20;;
70532;SDS011;58088;51.186;17.130;2023-05-23T12:56:47;11.50;;;8.20;;
70532;SDS011;58088;51.186;17.130;2023-05-23T12:59:13;12.20;;;8.20;;
70532;SDS011;58088;51.186;17.130;2023-05-23T13:01:39;15.70;;;9.00;;
70532;SDS011;58088;51.186;17.130;2023-05-23T13:04:06;15.20;;;8.60;;
70532;SDS011;58088;51.186;17.130;2023-05-23T13:06:32;15.20;;;8.50;;
70532;SDS011;58088;51.186;17.130;2023-05-23T13:08:58;13.40;;;8.10;;
70532;SDS011;58088;51.186;17.130;2023-05-23T13:11:24;13.80;;;9.60;;
70532;SDS011;58088;51.186;17.130;2023-05-23T13:13:51;11.80;;;8.20;;
70532;SDS011;58088;51.186;17.130;2023-05-23T13:16:17;12.60;;;7.70;;
70532;SDS011;58088;51.186;17.130;2023-05-23T13:18:44;13.90;;;9.00;;
70532;SDS011;58088;51.186;17.130;2023-05-23T13:21:10;13.60;;;9.40;;
70532;SDS011;58088;51.186;17.130;2023-05-23T13:23:37;14.40;;;9.10;;
70532;SDS011;58088;51.186;17.130;2023-05-23T13:26:04;14.70;;;9.50;;
70532;SDS011;58088;51.186;17.130;2023-05-23T13:28:32;12.70;;;9.00;;
70532;SDS011;58088;51.186;17.130;2023-05-23T13:30:59;13.30;;;8.30;;
70532;SDS011;58088;51.186;17.130;2023-05-23T13:33:26;15.40;;;9.50;;
70532;SDS011;58088;51.186;17.130;2023-05-23T13:35:52;13.20;;;8.90;;
70532;SDS011;58088;51.186;17.130;2023-05-23T13:38:19;12.60;;;8.30;;
70532;SDS011;58088;51.186;17.130;2023-05-23T13:40:45;12.20;;;9.00;;
70532;SDS011;58088;51.186;17.130;2023-05-23T13:43:12;15.30;;;9.70;;
70532;SDS011;58088;51.186;17.130;2023-05-23T13:45:38;14.60;;;9.80;;
70532;SDS011;58088;51.186;17.130;2023-05-23T13:48:04;14.30;;;9.90;;
70532;SDS011;58088;51.186;17.130;2023-05-23T13:50:30;11.10;;;8.80;;
70532;SDS011;58088;51.186;17.130;2023-05-23T13:52:56;15.30;;;9.50;;
70532;SDS011;58088;51.186;17.130;2023-05-23T13:55:22;12.10;;;7.80;;
70532;SDS011;58088;51.186;17.130;2023-05-23T13:57:49;11.00;;;8.50;;
70532;SDS011;58088;51.186;17.130;2023-05-23T14:00:15;12.80;;;8.00;;
70532;SDS011;58088;51.186;17.130;2023-05-23T14:02:42;13.40;;;8.60;;
70532;SDS011;58088;51.186;17.130;2023-05-23T14:05:08;15.60;;;8.30;;
70532;SDS011;58088;51.186;17.130;2023-05-23T14:07:35;11.80;;;8.00;;
70532;SDS011;58088;51.186;17.130;2023-05-23T14:10:01;13.70;;;8.60;;
70532;SDS011;58088;51.186;17.130;2023-05-23T14:12:27;12.90;;;7.40;;
70532;SDS011;58088;51.186;17.130;2023-05-23T14:14:53;10.80;;;7.20;;
70532;SDS011;58088;51.186;17.130;2023-05-23T14:17:19;10.80;;;6.80;;
70532;SDS011;58088;51.186;17.130;2023-05-23T14:19:46;10.90;;;7.20;;
70532;SDS011;58088;51.186;17.130;2023-05-23T14:22:12;12.40;;;7.00;;
70532;SDS011;58088;51.186;17.130;2023-05-23T14:24:38;13.10;;;7.80;;
70532;SDS011;58088;51.186;17.130;2023-05-23T14:27:04;13.50;;;7.60;;
70532;SDS011;58088;51.186;17.130;2023-05-23T14:29:31;10.30;;;6.90;;
70532;SDS011;58088;51.186;17.130;2023-05-23T14:31:57;12.90;;;7.90;;
70532;SDS011;58088;51.186;17.130;2023-05-23T14:34:25;13.40;;;7.90;;
70532;SDS011;58088;51.186;17.130;2023-05-23T14:36:51;11.40;;;7.10;;
70532;SDS011;58088;51.186;17.130;2023-05-23T14:39:18;10.80;;;7.00;;
70532;SDS011;58088;51.186;17.130;2023-05-23T14:41:44;12.10;;;6.40;;
70532;SDS011;58088;51.186;17.130;2023-05-23T14:44:11;9.60;;;7.10;;
70532;SDS011;58088;51.186;17.130;2023-05-23T14:46:38;11.30;;;6.60;;
70532;SDS011;58088;51.186;17.130;2023-05-23T14:49:04;10.00;;;6.50;;
70532;SDS011;58088;51.186;17.130;2023-05-23T14:51:30;11.10;;;6.50;;
70532;SDS011;58088;51.186;17.130;2023-05-23T14:53:57;8.60;;;6.00;;